Time;durP1;ratioP1;P1;durP2;ratioP2;P2;SDS_P1;SDS_P2;PMS_P1;PMS_P2;Temp;Humidity;BMP_temperature;BMP_pressure;BME280_temperature;BME280_humidity;BME280_pressure;Samples;Min_cycle;Max_cycle;Signal;HPM_P1;HPM_P2
2023/06/17 00:02:25;;;;;;;4.90;3.72;;;21.90;99.90;;;;;;5054180;28;20830;-73
2023/06/17 00:04:52;;;;;;;4.18;3.53;;;21.90;99.90;;;;;;5056715;28;20766;-73
2023/06/17 00:07:18;;;;;;;5.20;3.80;;;21.90;99.90;;;;;;5044707;28;20445;-73
2023/06/17 00:09:44;;;;;;;4.38;3.70;;;21.90;99.90;;;;;;5053996;28;20419;-73
2023/06/17 00:12:12;;;;;;;5.87;3.70;;;21.90;99.90;;;;;;5059475;28;21192;-73
2023/06/17 00:14:40;;;;;;;5.57;3.60;;;21.90;99.90;;;;;;5037120;28;20836;-73
2023/06/17 00:17:08;;;;;;;4.77;3.47;;;21.90;99.90;;;;;;5053903;28;20411;-74
2023/06/17 00:19:36;;;;;;;4.95;3.80;;;22.00;99.90;;;;;;5054914;28;20426;-73
2023/06/17 00:22:02;;;;;;;3.90;3.40;;;22.10;99.90;;;;;;5045505;28;20415;-73
2023/06/17 00:24:28;;;;;;;5.15;3.67;;;22.20;99.90;;;;;;5049115;28;20424;-73
2023/06/17 00:26:54;;;;;;;4.05;3.53;;;22.30;99.90;;;;;;5044748;28;20511;-73
2023/06/17 00:29:21;;;;;;;4.85;3.58;;;22.30;99.90;;;;;;5049607;28;20419;-73
2023/06/17 00:31:47;;;;;;;3.80;3.50;;;22.40;99.90;;;;;;5050600;28;20416;-73
2023/06/17 00:34:13;;;;;;;4.25;3.20;;;22.40;99.90;;;;;;5046560;28;20450;-73
2023/06/17 00:36:42;;;;;;;4.53;3.70;;;22.50;99.90;;;;;;5051539;28;20424;-73
2023/06/17 00:39:08;;;;;;;4.10;3.65;;;22.50;99.90;;;;;;5028993;28;20433;-73
2023/06/17 00:41:35;;;;;;;4.28;3.60;;;22.50;99.90;;;;;;5047463;28;20506;-73
2023/06/17 00:44:02;;;;;;;4.72;4.18;;;22.50;99.90;;;;;;5049740;28;20973;-73
2023/06/17 00:46:41;;;;;;;4.43;3.58;;;22.50;99.90;;;;;;5048391;28;22209;-73
2023/06/17 00:49:10;;;;;;;3.83;3.42;;;22.40;99.90;;;;;;5047430;28;20417;-73
2023/06/17 00:51:38;;;;;;;4.97;3.63;;;22.40;99.90;;;;;;5042690;28;20426;-73
2023/06/17 00:54:07;;;;;;;4.43;3.80;;;22.40;99.90;;;;;;5059660;28;21052;-73
2023/06/17 00:56:36;;;;;;;4.22;3.60;;;22.40;99.90;;;;;;5049977;28;20419;-73
2023/06/17 00:59:04;;;;;;;4.88;4.05;;;22.30;99.90;;;;;;5045317;28;20452;-73
2023/06/17 01:01:30;;;;;;;5.63;3.92;;;22.30;99.90;;;;;;5048731;28;20421;-73
2023/06/17 01:03:59;;;;;;;4.13;3.70;;;22.30;99.90;;;;;;5048370;28;20419;-73
2023/06/17 01:07:23;;;;;;;5.15;3.92;;;22.30;99.90;;;;;;5051418;28;20429;-73
2023/06/17 01:10:06;;;;;;;4.70;4.00;;;22.30;99.90;;;;;;5052086;28;20547;-73
2023/06/17 01:12:33;;;;;;;5.20;3.80;;;22.30;99.90;;;;;;5049136;28;20506;-73
2023/06/17 01:15:01;;;;;;;4.03;3.63;;;22.30;99.90;;;;;;5048956;28;20510;-73
2023/06/17 01:17:29;;;;;;;3.83;3.47;;;22.30;99.90;;;;;;5046557;28;20537;-73
2023/06/17 01:19:57;;;;;;;4.25;3.78;;;22.20;99.90;;;;;;5049364;28;20423;-73
2023/06/17 01:22:26;;;;;;;5.60;3.95;;;22.20;99.90;;;;;;5052590;28;21032;-73
2023/06/17 01:24:52;;;;;;;4.27;3.87;;;22.20;99.90;;;;;;5053752;28;20410;-73
2023/06/17 01:27:18;;;;;;;5.55;4.00;;;22.20;99.90;;;;;;5055564;28;20454;-73
2023/06/17 01:29:48;;;;;;;5.22;3.80;;;22.30;99.90;;;;;;5054648;28;20466;-73
2023/06/17 01:32:15;;;;;;;4.30;3.53;;;22.30;99.90;;;;;;5049654;28;20431;-73
2023/06/17 01:35:04;;;;;;;4.22;3.80;;;22.40;99.90;;;;;;5048381;28;20523;-73
2023/06/17 01:37:45;;;;;;;4.50;4.00;;;22.40;99.90;;;;;;5050801;28;20447;-73
2023/06/17 01:40:14;;;;;;;4.45;4.00;;;22.40;99.90;;;;;;5057518;28;20799;-73
2023/06/17 01:42:45;;;;;;;4.22;3.83;;;22.40;99.90;;;;;;5049240;28;20481;-73
2023/06/17 01:45:13;;;;;;;4.55;3.65;;;22.40;99.90;;;;;;5054132;28;20429;-73
2023/06/17 01:47:40;;;;;;;4.20;3.65;;;22.40;99.90;;;;;;5048911;28;20413;-74
2023/06/17 01:50:07;;;;;;;4.05;3.65;;;22.50;99.90;;;;;;5049265;28;20769;-73
2023/06/17 01:52:34;;;;;;;4.07;3.67;;;22.50;99.90;;;;;;5048365;28;20407;-74
2023/06/17 01:55:02;;;;;;;4.93;3.60;;;22.50;99.90;;;;;;5033737;28;20926;-74
2023/06/17 01:57:30;;;;;;;4.00;3.60;;;22.50;99.90;;;;;;5048775;28;20786;-73
2023/06/17 01:59:57;;;;;;;5.27;3.80;;;22.50;99.90;;;;;;5050843;28;20434;-73
2023/06/17 02:02:24;;;;;;;4.10;3.70;;;22.50;99.90;;;;;;5053746;28;20831;-73
2023/06/17 02:04:50;;;;;;;4.38;3.97;;;22.50;99.90;;;;;;5049236;28;20415;-73
2023/06/17 02:07:17;;;;;;;4.63;3.80;;;22.50;99.90;;;;;;5051549;28;20445;-73
2023/06/17 02:09:45;;;;;;;4.20;3.75;;;22.50;99.90;;;;;;5058901;28;20421;-73
2023/06/17 02:12:13;;;;;;;5.28;3.72;;;22.40;99.90;;;;;;5068734;28;20617;-73
2023/06/17 02:14:39;;;;;;;5.45;4.00;;;22.40;99.90;;;;;;5053814;28;20413;-73
2023/06/17 02:17:05;;;;;;;4.00;3.60;;;22.30;99.90;;;;;;5058345;28;20943;-73
2023/06/17 02:19:35;;;;;;;4.10;3.70;;;22.30;99.90;;;;;;5058711;28;20999;-73
2023/06/17 02:22:02;;;;;;;4.15;3.75;;;22.30;99.90;;;;;;5059268;28;20932;-73
2023/06/17 02:24:28;;;;;;;4.47;3.42;;;22.20;99.90;;;;;;5052036;28;20411;-73
2023/06/17 02:26:54;;;;;;;3.95;3.60;;;22.20;99.90;;;;;;5043974;28;20486;-73
2023/06/17 02:29:20;;;;;;;5.55;3.50;;;22.10;99.90;;;;;;5062896;28;20411;-73
2023/06/17 02:31:47;;;;;;;3.83;3.50;;;22.10;99.90;;;;;;5055819;28;20501;-73
2023/06/17 02:34:13;;;;;;;3.60;3.30;;;22.10;99.90;;;;;;5065278;28;20416;-73
2023/06/17 02:36:39;;;;;;;4.00;3.60;;;22.10;99.90;;;;;;5051451;28;20799;-73
2023/06/17 02:39:06;;;;;;;6.23;3.70;;;22.00;99.90;;;;;;5040432;28;20411;-74
2023/06/17 02:41:33;;;;;;;4.00;3.60;;;21.90;99.90;;;;;;5053820;28;20888;-74
2023/06/17 02:44:00;;;;;;;3.75;3.35;;;21.90;99.90;;;;;;5062132;28;20931;-73
2023/06/17 02:46:26;;;;;;;4.05;3.65;;;21.90;99.90;;;;;;5052884;28;21426;-73
2023/06/17 02:48:54;;;;;;;4.00;3.70;;;21.90;99.90;;;;;;5048333;28;20413;-73
2023/06/17 02:51:21;;;;;;;3.95;3.50;;;21.90;99.90;;;;;;5058536;28;20484;-72
2023/06/17 02:53:47;;;;;;;4.00;3.60;;;22.00;99.90;;;;;;5050778;28;20420;-73
2023/06/17 02:56:14;;;;;;;4.10;3.70;;;22.00;99.90;;;;;;5050788;28;20437;-73
2023/06/17 02:58:43;;;;;;;3.67;3.30;;;22.00;99.90;;;;;;5057839;28;21187;-73
2023/06/17 03:01:11;;;;;;;3.88;3.42;;;22.00;99.90;;;;;;5065360;28;20913;-73
2023/06/17 03:03:37;;;;;;;3.90;3.40;;;22.10;99.90;;;;;;5051044;28;20514;-73
2023/06/17 03:06:08;;;;;;;3.70;3.40;;;22.10;99.90;;;;;;5064093;28;20999;-73
2023/06/17 03:08:39;;;;;;;3.90;3.50;;;22.20;99.90;;;;;;5056867;28;20857;-73
2023/06/17 03:11:05;;;;;;;4.43;3.35;;;22.20;99.90;;;;;;5048853;28;20413;-73
2023/06/17 03:13:32;;;;;;;4.23;3.30;;;22.20;99.90;;;;;;5052377;28;20614;-74
2023/06/17 03:16:01;;;;;;;5.03;3.40;;;22.20;99.90;;;;;;5050498;28;20417;-74
2023/06/17 03:18:28;;;;;;;3.20;2.90;;;22.30;99.90;;;;;;5049135;28;20447;-74
2023/06/17 03:20:55;;;;;;;3.55;3.13;;;22.30;99.90;;;;;;5061147;28;20645;-74
2023/06/17 03:23:21;;;;;;;4.25;3.03;;;22.40;99.90;;;;;;5048933;28;21193;-75
2023/06/17 03:25:50;;;;;;;3.97;3.25;;;22.40;99.90;;;;;;5058804;28;20812;-73
2023/06/17 03:28:17;;;;;;;3.47;3.17;;;22.40;99.90;;;;;;5057533;28;20963;-73
2023/06/17 03:30:44;;;;;;;3.20;2.90;;;22.50;99.90;;;;;;5055852;28;20890;-75
2023/06/17 03:33:13;;;;;;;3.47;3.15;;;22.50;99.90;;;;;;5058333;28;20420;-77
2023/06/17 03:35:40;;;;;;;3.40;3.05;;;22.50;99.90;;;;;;5051924;28;20415;-73
2023/06/17 03:38:07;;;;;;;3.72;3.10;;;22.60;99.90;;;;;;5056697;28;20423;-75
2023/06/17 03:40:33;;;;;;;3.97;2.92;;;22.60;99.90;;;;;;5059770;28;20446;-76
2023/06/17 03:42:59;;;;;;;3.95;3.30;;;22.60;99.90;;;;;;5057859;28;21110;-76
2023/06/17 03:45:25;;;;;;;4.53;3.35;;;22.70;99.90;;;;;;5056900;28;20435;-76
2023/06/17 03:47:54;;;;;;;3.95;3.30;;;22.70;99.90;;;;;;5062131;28;21222;-76
2023/06/17 03:50:21;;;;;;;3.97;3.00;;;22.70;99.90;;;;;;5054937;28;20815;-76
2023/06/17 03:52:47;;;;;;;3.30;3.00;;;22.80;99.90;;;;;;5061280;28;20452;-76
2023/06/17 03:55:13;;;;;;;3.17;2.88;;;22.80;99.90;;;;;;5054965;28;20434;-76
2023/06/17 03:57:40;;;;;;;4.45;3.13;;;22.90;99.90;;;;;;5052233;28;20451;-77
2023/06/17 04:00:07;;;;;;;3.70;2.95;;;22.80;99.90;;;;;;5058009;28;21003;-76
2023/06/17 04:02:34;;;;;;;3.30;3.00;;;22.90;99.90;;;;;;5055961;28;20483;-77
2023/06/17 04:05:02;;;;;;;5.20;3.20;;;22.90;99.90;;;;;;5056252;28;20585;-77
2023/06/17 04:07:28;;;;;;;4.20;2.97;;;22.90;99.90;;;;;;5069221;28;20431;-76
2023/06/17 04:09:54;;;;;;;4.95;2.95;;;23.00;99.90;;;;;;5059577;28;20415;-76
2023/06/17 04:12:21;;;;;;;3.87;3.07;;;23.00;99.90;;;;;;5068820;28;21105;-76
2023/06/17 04:14:47;;;;;;;4.20;2.90;;;23.10;99.90;;;;;;5057542;28;20408;-77
2023/06/17 04:17:17;;;;;;;4.70;2.95;;;23.10;99.90;;;;;;5050402;28;20427;-76
2023/06/17 04:19:44;;;;;;;3.00;2.70;;;23.10;99.90;;;;;;5056584;28;20924;-75
2023/06/17 04:22:10;;;;;;;3.47;2.92;;;23.10;99.90;;;;;;5062720;28;20411;-75
2023/06/17 04:24:38;;;;;;;4.30;3.00;;;23.10;99.90;;;;;;5051261;28;20867;-76
2023/06/17 04:27:06;;;;;;;5.90;2.78;;;23.10;99.90;;;;;;5055704;28;21035;-75
2023/06/17 04:29:34;;;;;;;3.40;3.03;;;23.20;99.90;;;;;;5062564;28;21026;-76
2023/06/17 04:32:02;;;;;;;4.10;2.88;;;23.20;99.90;;;;;;5052283;28;20408;-76
2023/06/17 04:34:29;;;;;;;3.08;2.67;;;23.30;99.90;;;;;;5067370;28;20416;-76
2023/06/17 04:36:58;;;;;;;2.92;2.38;;;23.40;99.90;;;;;;5063718;28;21876;-76
2023/06/17 04:39:26;;;;;;;3.00;2.55;;;23.50;99.90;;;;;;5058716;28;20424;-73
2023/06/17 04:41:53;;;;;;;4.55;2.97;;;23.50;99.90;;;;;;5056782;28;20527;-76
2023/06/17 04:44:19;;;;;;;3.30;2.60;;;23.60;99.90;;;;;;5053803;28;20506;-76
2023/06/17 04:46:48;;;;;;;2.90;2.60;;;23.60;99.90;;;;;;5051210;28;20425;-76
2023/06/17 04:49:15;;;;;;;3.05;2.75;;;23.70;99.90;;;;;;5056161;28;20439;-76
2023/06/17 04:51:41;;;;;;;4.30;2.63;;;23.70;99.90;;;;;;5034380;28;20424;-76
2023/06/17 04:54:08;;;;;;;2.88;2.47;;;23.80;99.90;;;;;;5051381;28;21373;-76
2023/06/17 04:56:35;;;;;;;3.05;2.70;;;23.90;99.90;;;;;;5053805;28;20424;-76
2023/06/17 04:59:01;;;;;;;3.67;2.87;;;23.90;99.90;;;;;;5040851;28;20533;-76
2023/06/17 05:01:27;;;;;;;3.45;2.70;;;23.90;99.90;;;;;;5062144;28;20449;-75
2023/06/17 05:03:53;;;;;;;4.03;2.85;;;23.90;99.90;;;;;;5053877;28;20437;-76
2023/06/17 05:06:19;;;;;;;3.08;2.78;;;23.90;99.90;;;;;;5056112;28;20417;-76
2023/06/17 05:08:46;;;;;;;2.70;2.50;;;23.90;99.90;;;;;;5051984;28;20440;-76
2023/06/17 05:11:12;;;;;;;3.45;3.03;;;23.90;99.90;;;;;;5050672;28;20971;-76
2023/06/17 05:13:40;;;;;;;4.18;2.90;;;23.90;99.90;;;;;;5059251;28;20422;-76
2023/06/17 05:16:06;;;;;;;3.83;2.88;;;23.90;99.90;;;;;;5053532;28;20419;-75
2023/06/17 05:18:32;;;;;;;2.90;2.70;;;23.90;99.90;;;;;;5053540;28;20425;-76
2023/06/17 05:20:58;;;;;;;4.20;2.63;;;23.90;99.90;;;;;;5054349;28;20419;-76
2023/06/17 05:23:24;;;;;;;4.70;3.00;;;24.00;99.90;;;;;;5055020;28;20828;-76
2023/06/17 05:25:51;;;;;;;7.25;2.83;;;24.00;99.90;;;;;;5062984;28;20415;-76
2023/06/17 05:28:18;;;;;;;3.67;2.53;;;24.00;99.90;;;;;;5053943;28;20421;-76
2023/06/17 05:30:44;;;;;;;5.43;2.38;;;24.00;99.90;;;;;;5058950;28;20933;-75
2023/06/17 05:33:10;;;;;;;3.55;2.50;;;24.10;99.90;;;;;;5054641;28;20441;-75
2023/06/17 05:35:36;;;;;;;3.08;2.50;;;24.10;99.90;;;;;;5073740;28;20526;-76
2023/06/17 05:38:04;;;;;;;3.00;2.57;;;24.20;99.90;;;;;;5054109;28;20425;-76
2023/06/17 05:40:30;;;;;;;3.45;2.42;;;24.20;99.90;;;;;;5056919;28;20435;-76
2023/06/17 05:42:56;;;;;;;4.15;2.40;;;24.20;99.90;;;;;;5054768;28;20417;-76
2023/06/17 05:45:22;;;;;;;4.07;2.72;;;24.30;99.90;;;;;;5056998;28;20421;-76
2023/06/17 05:47:49;;;;;;;3.50;2.50;;;24.30;99.90;;;;;;5034933;28;20422;-76
2023/06/17 05:50:15;;;;;;;4.27;2.50;;;24.30;99.90;;;;;;5055165;28;20467;-76
2023/06/17 05:52:42;;;;;;;4.68;2.40;;;24.40;99.90;;;;;;5053365;28;20423;-76
2023/06/17 05:55:10;;;;;;;3.97;2.30;;;24.40;99.90;;;;;;5065399;28;20424;-75
2023/06/17 05:57:36;;;;;;;2.78;2.40;;;24.50;99.90;;;;;;5061605;28;20441;-76
2023/06/17 06:00:04;;;;;;;3.53;2.45;;;24.50;99.90;;;;;;5058549;28;20415;-76
2023/06/17 06:02:30;;;;;;;2.90;2.40;;;24.60;99.90;;;;;;5047583;28;20419;-76
2023/06/17 06:04:57;;;;;;;4.72;2.50;;;24.60;99.90;;;;;;5057405;28;20411;-76
2023/06/17 06:07:23;;;;;;;3.10;2.30;;;24.70;99.90;;;;;;5053683;28;20425;-75
2023/06/17 06:09:49;;;;;;;2.22;1.90;;;24.70;99.90;;;;;;5057936;28;20447;-76
2023/06/17 06:12:16;;;;;;;3.73;2.30;;;24.80;99.90;;;;;;5056784;28;20965;-76
2023/06/17 06:14:43;;;;;;;2.97;2.20;;;24.80;99.90;;;;;;5053191;28;20502;-76
2023/06/17 06:17:09;;;;;;;3.10;2.20;;;24.90;99.90;;;;;;5055566;28;20422;-75
2023/06/17 06:19:35;;;;;;;2.85;2.15;;;24.90;99.90;;;;;;5056705;28;20422;-76
2023/06/17 06:22:02;;;;;;;4.20;2.33;;;25.00;99.90;;;;;;5051227;28;20440;-76
2023/06/17 06:24:28;;;;;;;2.78;2.13;;;25.00;99.90;;;;;;5056610;28;20427;-76
2023/06/17 06:26:54;;;;;;;4.78;2.30;;;25.10;99.90;;;;;;5056318;28;20946;-76
2023/06/17 06:29:21;;;;;;;5.63;2.38;;;25.20;99.90;;;;;;5052491;28;20415;-75
2023/06/17 06:31:47;;;;;;;3.90;2.50;;;25.40;99.90;;;;;;5054409;28;20406;-74
2023/06/17 06:34:13;;;;;;;2.70;2.33;;;25.40;99.90;;;;;;5054533;28;21169;-74
2023/06/17 06:36:39;;;;;;;7.10;3.40;;;25.50;99.90;;;;;;5055498;28;20940;-74
2023/06/17 06:39:05;;;;;;;3.95;2.92;;;25.50;99.90;;;;;;5053187;28;20838;-74
2023/06/17 06:41:32;;;;;;;4.30;3.20;;;25.50;99.90;;;;;;5059716;28;20522;-75
2023/06/17 06:43:58;;;;;;;5.75;3.50;;;25.50;99.90;;;;;;5053247;28;21188;-75
2023/06/17 06:46:25;;;;;;;5.45;3.30;;;25.60;99.90;;;;;;5056320;28;21136;-75
2023/06/17 06:48:52;;;;;;;5.15;3.30;;;25.60;99.90;;;;;;5055325;28;20426;-74
2023/06/17 06:51:18;;;;;;;5.00;3.53;;;25.70;99.90;;;;;;5061562;28;20409;-74
2023/06/17 06:53:44;;;;;;;4.72;3.40;;;25.70;99.90;;;;;;5049335;28;20429;-73
2023/06/17 06:56:10;;;;;;;5.82;3.45;;;25.70;99.90;;;;;;5055066;28;20514;-74
2023/06/17 06:58:37;;;;;;;4.93;3.40;;;25.70;99.90;;;;;;5058240;28;20424;-74
2023/06/17 07:01:03;;;;;;;5.03;3.10;;;25.80;99.90;;;;;;5062362;28;20417;-75
2023/06/17 07:03:29;;;;;;;5.27;3.43;;;25.80;99.90;;;;;;5058786;28;20426;-76
2023/06/17 07:05:55;;;;;;;5.43;3.40;;;26.00;99.90;;;;;;5077884;28;20430;-76
2023/06/17 07:08:21;;;;;;;6.00;3.20;;;26.00;99.90;;;;;;5055383;28;20422;-76
2023/06/17 07:10:48;;;;;;;5.28;3.20;;;25.90;99.90;;;;;;5054543;28;20411;-76
2023/06/17 07:13:17;;;;;;;4.65;3.20;;;26.00;99.90;;;;;;5058369;28;20413;-76
2023/06/17 07:15:45;;;;;;;8.65;3.10;;;26.00;99.90;;;;;;5060417;28;20779;-76
2023/06/17 07:18:11;;;;;;;7.05;3.10;;;26.00;99.90;;;;;;5054640;28;20534;-76
2023/06/17 07:20:37;;;;;;;5.50;3.10;;;26.00;99.90;;;;;;5057948;28;20415;-76
2023/06/17 07:23:04;;;;;;;5.68;3.30;;;26.00;99.90;;;;;;5052893;28;20496;-75
2023/06/17 07:25:30;;;;;;;3.78;3.15;;;26.10;99.90;;;;;;5058497;28;20964;-76
2023/06/17 07:27:56;;;;;;;4.47;3.10;;;26.20;99.90;;;;;;5043142;28;20436;-76
2023/06/17 07:30:23;;;;;;;4.05;3.20;;;26.40;99.90;;;;;;5057183;28;20419;-76
2023/06/17 07:32:50;;;;;;;6.77;3.13;;;26.50;99.90;;;;;;5058216;28;21145;-76
2023/06/17 07:35:18;;;;;;;4.22;3.15;;;26.50;99.90;;;;;;5059258;28;20479;-76
2023/06/17 07:37:44;;;;;;;5.43;3.25;;;26.40;99.90;;;;;;5054898;28;20435;-75
2023/06/17 07:40:11;;;;;;;4.10;3.33;;;26.40;99.90;;;;;;5039180;28;20466;-75
2023/06/17 07:42:40;;;;;;;4.82;3.20;;;26.50;99.90;;;;;;5053659;28;20507;-75
2023/06/17 07:45:07;;;;;;;5.30;3.20;;;26.50;99.90;;;;;;5057245;28;20417;-75
2023/06/17 07:47:33;;;;;;;7.17;3.37;;;26.60;99.90;;;;;;5055049;28;20412;-75
2023/06/17 07:50:00;;;;;;;7.63;3.90;;;26.70;99.90;;;;;;5057533;28;20489;-75
2023/06/17 07:52:26;;;;;;;5.22;3.30;;;26.70;99.90;;;;;;5060254;28;21865;-75
2023/06/17 07:54:53;;;;;;;6.93;3.90;;;26.80;99.90;;;;;;5053532;28;20444;-76
2023/06/17 07:57:20;;;;;;;6.75;3.83;;;26.90;99.90;;;;;;5053440;28;20518;-74
2023/06/17 07:59:46;;;;;;;6.63;3.80;;;26.90;99.90;;;;;;5049198;28;20417;-75
2023/06/17 08:02:12;;;;;;;5.87;3.90;;;27.00;99.90;;;;;;5050334;28;20401;-74
2023/06/17 08:04:39;;;;;;;6.63;3.83;;;27.10;99.90;;;;;;5051825;28;20856;-74
2023/06/17 08:07:05;;;;;;;4.77;3.70;;;27.10;99.90;;;;;;5055758;28;22595;-74
2023/06/17 08:09:32;;;;;;;6.72;4.00;;;27.00;99.90;;;;;;5050955;28;20743;-74
2023/06/17 08:11:58;;;;;;;7.95;4.18;;;27.10;99.90;;;;;;5053775;28;20421;-74
2023/06/17 08:14:25;;;;;;;7.27;3.80;;;27.10;99.90;;;;;;5067464;28;20468;-75
2023/06/17 08:16:51;;;;;;;6.20;4.00;;;27.20;99.90;;;;;;5053635;28;20496;-74
2023/06/17 08:19:17;;;;;;;5.78;4.10;;;27.20;99.90;;;;;;5057760;28;20487;-74
2023/06/17 08:21:45;;;;;;;7.20;4.10;;;27.40;99.90;;;;;;5060925;28;20430;-74
2023/06/17 08:24:19;;;;;;;8.30;4.15;;;27.30;99.90;;;;;;5055205;28;20568;-75
2023/06/17 08:26:46;;;;;;;6.80;4.10;;;27.20;99.90;;;;;;5057228;28;20454;-74
2023/06/17 08:29:13;;;;;;;6.00;4.00;;;27.30;99.90;;;;;;5054153;28;20511;-74
2023/06/17 08:31:43;;;;;;;6.82;4.22;;;27.40;99.90;;;;;;5055553;28;20546;-74
2023/06/17 08:34:11;;;;;;;8.13;4.28;;;27.40;99.90;;;;;;5057733;28;20563;-74
2023/06/17 08:36:39;;;;;;;7.90;4.10;;;27.60;99.90;;;;;;5058129;28;20913;-74
2023/06/17 08:39:05;;;;;;;7.22;4.00;;;27.70;99.90;;;;;;5052222;28;20450;-75
2023/06/17 08:41:42;;;;;;;6.00;4.10;;;27.70;99.90;;;;;;5055815;28;20427;-74
2023/06/17 08:44:11;;;;;;;9.38;4.43;;;27.70;99.90;;;;;;5054918;28;20511;-75
2023/06/17 08:46:42;;;;;;;6.00;4.10;;;27.90;99.90;;;;;;5070495;28;20414;-75
2023/06/17 08:49:10;;;;;;;6.63;4.10;;;28.20;99.90;;;;;;5050676;28;20443;-76
2023/06/17 08:51:37;;;;;;;7.07;3.90;;;28.50;99.90;;;;;;5057814;28;20441;-76
2023/06/17 08:54:04;;;;;;;6.80;4.00;;;28.50;99.90;;;;;;5049457;28;22467;-74
2023/06/17 08:56:30;;;;;;;6.80;3.80;;;28.70;99.90;;;;;;5065957;28;20419;-75
2023/06/17 08:58:57;;;;;;;5.32;3.72;;;28.80;99.90;;;;;;5058879;28;20416;-74
2023/06/17 09:01:25;;;;;;;7.90;4.07;;;28.80;99.90;;;;;;5064407;28;20520;-74
2023/06/17 09:03:56;;;;;;;6.03;3.95;;;28.60;99.90;;;;;;5051836;28;22819;-74
2023/06/17 09:06:28;;;;;;;6.40;3.90;;;28.60;99.90;;;;;;5052224;28;20818;-74
2023/06/17 09:08:57;;;;;;;6.45;3.70;;;28.70;99.90;;;;;;5051620;28;20408;-74
2023/06/17 09:11:30;;;;;;;8.45;3.83;;;28.90;99.90;;;;;;5059595;28;20480;-74
2023/06/17 09:13:59;;;;;;;11.00;3.90;;;29.00;99.90;;;;;;5058763;28;20419;-73
2023/06/17 09:16:30;;;;;;;5.47;3.88;;;29.10;99.90;;;;;;5047855;28;20428;-75
2023/06/17 09:19:13;;;;;;;4.57;3.43;;;29.10;99.90;;;;;;5057374;28;20509;-75
2023/06/17 09:21:40;;;;;;;7.88;3.53;;;29.40;99.90;;;;;;5038262;28;20419;-75
2023/06/17 09:24:11;;;;;;;5.72;3.65;;;29.50;99.90;;;;;;5054659;28;20965;-75
2023/06/17 09:26:43;;;;;;;6.22;3.40;;;29.50;99.90;;;;;;5052836;28;20516;-75
2023/06/17 09:29:13;;;;;;;5.97;2.95;;;29.60;99.90;;;;;;5068465;28;20452;-75
2023/06/17 09:31:55;;;;;;;5.53;2.93;;;29.70;99.90;;;;;;5057676;28;20476;-75
2023/06/17 09:34:24;;;;;;;4.85;2.95;;;30.10;99.90;;;;;;5054461;28;20792;-75
2023/06/17 09:37:00;;;;;;;5.97;2.88;;;30.30;99.90;;;;;;5056097;28;20917;-75
2023/06/17 09:39:33;;;;;;;5.35;2.83;;;30.50;99.90;;;;;;5060624;28;21804;-75
2023/06/17 09:42:10;;;;;;;5.40;2.97;;;30.80;99.90;;;;;;5057558;28;20443;-75
2023/06/17 09:44:46;;;;;;;3.80;2.70;;;30.80;99.90;;;;;;5056499;28;20481;-76
2023/06/17 09:47:13;;;;;;;4.63;2.70;;;30.60;99.90;;;;;;5074115;28;20411;-75
2023/06/17 09:49:39;;;;;;;5.30;2.80;;;30.70;99.90;;;;;;5057171;28;20443;-76
2023/06/17 09:52:10;;;;;;;4.40;2.70;;;30.80;99.90;;;;;;5041305;28;20416;-75
2023/06/17 09:54:37;;;;;;;6.97;2.70;;;30.80;99.90;;;;;;5053078;28;20424;-76
2023/06/17 09:57:09;;;;;;;8.38;2.70;;;30.60;99.90;;;;;;5056328;28;21075;-76
2023/06/17 09:59:36;;;;;;;6.03;3.03;;;30.60;99.90;;;;;;5053378;28;20424;-76
2023/06/17 10:02:02;;;;;;;6.10;2.50;;;30.80;99.90;;;;;;5055122;28;20748;-76
2023/06/17 10:04:28;;;;;;;4.45;2.70;;;30.90;99.90;;;;;;5053565;28;20841;-74
2023/06/17 10:06:57;;;;;;;7.57;3.03;;;31.10;99.90;;;;;;5054601;28;20515;-75
2023/06/17 10:09:26;;;;;;;7.15;2.90;;;31.20;99.90;;;;;;5053543;28;21181;-75
2023/06/17 10:11:56;;;;;;;8.15;3.25;;;31.10;99.90;;;;;;5056249;28;21311;-75
2023/06/17 10:14:29;;;;;;;7.30;3.30;;;30.60;99.90;;;;;;5055685;28;20457;-76
2023/06/17 10:16:56;;;;;;;6.53;3.30;;;30.60;99.90;;;;;;5052864;28;20409;-76
2023/06/17 10:19:31;;;;;;;6.57;3.05;;;30.50;99.90;;;;;;5060186;28;20558;-75
2023/06/17 10:22:07;;;;;;;9.02;3.38;;;30.30;99.90;;;;;;5055115;28;20793;-76
2023/06/17 10:24:35;;;;;;;9.55;3.60;;;30.30;99.90;;;;;;5056909;28;20490;-76
2023/06/17 10:27:07;;;;;;;6.70;3.53;;;30.40;99.90;;;;;;5054357;28;20501;-75
2023/06/17 10:29:34;;;;;;;7.18;3.55;;;30.20;99.90;;;;;;5057934;28;21167;-75
2023/06/17 10:32:25;;;;;;;11.23;3.67;;;30.30;99.90;;;;;;5058742;28;20420;-75
2023/06/17 10:35:10;;;;;;;7.97;3.92;;;30.20;99.90;;;;;;5052947;28;20413;-75
2023/06/17 10:37:42;;;;;;;11.07;4.20;;;30.20;99.90;;;;;;5071611;28;20412;-76
2023/06/17 10:40:30;;;;;;;9.63;3.83;;;30.20;99.90;;;;;;5055027;28;20567;-77
2023/06/17 10:43:02;;;;;;;7.95;4.00;;;30.10;99.90;;;;;;5054021;28;20433;-75
2023/06/17 10:45:55;;;;;;;11.27;4.20;;;30.20;99.90;;;;;;5072146;28;20415;-76
2023/06/17 10:48:29;;;;;;;9.57;4.10;;;30.20;99.90;;;;;;5051866;28;20413;-75
2023/06/17 10:51:03;;;;;;;11.60;4.32;;;29.90;99.90;;;;;;5064060;28;20409;-75
2023/06/17 10:53:31;;;;;;;13.63;4.43;;;29.60;99.90;;;;;;5049887;28;20430;-75
2023/06/17 10:56:00;;;;;;;16.17;4.93;;;29.30;99.90;;;;;;5052736;28;20439;-75
2023/06/17 10:58:36;;;;;;;16.45;5.55;;;29.20;99.90;;;;;;5062371;28;20466;-75
2023/06/17 11:01:07;;;;;;;14.18;4.93;;;29.20;99.90;;;;;;5047254;28;21184;-74
2023/06/17 11:03:34;;;;;;;14.68;5.35;;;29.20;99.90;;;;;;5059830;28;20430;-74
2023/06/17 11:06:09;;;;;;;20.15;5.72;;;29.10;99.90;;;;;;5050613;28;20891;-74
2023/06/17 11:08:37;;;;;;;17.42;5.63;;;29.00;99.90;;;;;;5056598;28;20404;-74
2023/06/17 11:11:23;;;;;;;17.60;5.55;;;28.90;99.90;;;;;;5054051;28;20482;-74
2023/06/17 11:13:51;;;;;;;15.93;5.88;;;29.00;99.90;;;;;;5049636;28;20405;-74
2023/06/17 11:16:18;;;;;;;19.38;6.40;;;29.00;99.90;;;;;;5052817;28;22773;-74
2023/06/17 11:18:46;;;;;;;22.90;6.80;;;28.90;99.90;;;;;;5043782;28;20411;-74
2023/06/17 11:21:12;;;;;;;18.35;6.47;;;28.50;99.90;;;;;;5066281;28;20432;-74
2023/06/17 11:23:42;;;;;;;17.05;5.90;;;28.50;99.90;;;;;;5054426;28;20726;-74
2023/06/17 11:26:09;;;;;;;18.55;6.38;;;28.50;99.90;;;;;;5054416;28;20411;-73
2023/06/17 11:28:35;;;;;;;17.20;5.85;;;28.50;99.90;;;;;;5053088;28;20880;-74
2023/06/17 11:31:04;;;;;;;15.33;5.97;;;28.30;99.90;;;;;;5056859;28;20413;-74
2023/06/17 11:33:32;;;;;;;19.60;5.95;;;28.40;99.90;;;;;;5062975;28;20951;-74
2023/06/17 11:35:59;;;;;;;21.55;6.43;;;28.40;99.90;;;;;;5061040;28;20407;-74
2023/06/17 11:38:26;;;;;;;20.35;6.55;;;28.30;99.90;;;;;;5050638;28;20773;-74
2023/06/17 11:40:55;;;;;;;21.23;6.22;;;28.20;99.90;;;;;;5053174;28;20419;-74
2023/06/17 11:43:26;;;;;;;20.35;6.80;;;28.20;99.90;;;;;;5062156;28;20413;-74
2023/06/17 11:45:57;;;;;;;17.92;6.03;;;28.20;99.90;;;;;;5059584;28;20411;-73
2023/06/17 11:48:36;;;;;;;21.90;6.32;;;28.10;99.90;;;;;;5055759;28;20407;-73
2023/06/17 11:51:03;;;;;;;19.90;6.07;;;28.10;99.90;;;;;;5071910;28;20440;-73
2023/06/17 11:53:39;;;;;;;19.77;6.72;;;28.00;99.90;;;;;;5056587;28;20441;-73
2023/06/17 11:56:08;;;;;;;21.30;6.53;;;28.10;99.90;;;;;;5051603;28;20443;-73
2023/06/17 11:58:39;;;;;;;25.70;6.77;;;28.00;99.90;;;;;;5051745;28;20431;-73
2023/06/17 12:01:08;;;;;;;19.70;6.43;;;27.90;99.90;;;;;;5049335;28;20432;-73
2023/06/17 12:03:36;;;;;;;18.40;6.70;;;27.90;99.90;;;;;;5054599;28;20495;-73
2023/06/17 12:06:03;;;;;;;18.23;5.82;;;27.90;99.90;;;;;;5058320;28;20424;-74
2023/06/17 12:08:37;;;;;;;23.70;6.57;;;27.90;99.90;;;;;;5052930;28;20414;-73
2023/06/17 12:11:22;;;;;;;17.23;5.78;;;27.80;99.90;;;;;;5058387;28;21293;-74
2023/06/17 12:13:50;;;;;;;19.40;5.57;;;27.80;99.90;;;;;;5052612;28;20416;-74
2023/06/17 12:16:31;;;;;;;18.52;5.68;;;27.70;99.90;;;;;;5059059;28;20473;-73
2023/06/17 12:18:58;;;;;;;21.38;5.63;;;27.60;99.90;;;;;;5063818;28;20451;-74
2023/06/17 12:21:25;;;;;;;17.60;5.20;;;27.60;99.90;;;;;;5061584;28;20832;-73
2023/06/17 12:23:53;;;;;;;19.08;5.55;;;27.70;99.90;;;;;;5063128;28;20483;-74
2023/06/17 12:26:23;;;;;;;23.27;6.00;;;27.60;99.90;;;;;;5056427;28;20444;-74
2023/06/17 12:28:50;;;;;;;27.13;5.87;;;27.50;99.90;;;;;;5053008;28;20864;-74
2023/06/17 12:31:17;;;;;;;27.15;6.07;;;27.50;99.90;;;;;;5055524;28;20439;-74
2023/06/17 12:33:46;;;;;;;21.33;5.88;;;27.40;99.90;;;;;;5043523;28;20411;-74
2023/06/17 12:36:13;;;;;;;25.35;6.13;;;27.30;99.90;;;;;;5059483;28;20412;-73
2023/06/17 12:38:40;;;;;;;28.40;6.03;;;27.30;99.90;;;;;;5054236;28;20851;-73
2023/06/17 12:41:07;;;;;;;23.53;5.73;;;27.20;99.90;;;;;;5069244;28;20417;-73
2023/06/17 12:43:35;;;;;;;24.42;6.47;;;27.00;99.90;;;;;;5053610;28;20465;-73
2023/06/17 12:46:01;;;;;;;20.42;5.97;;;27.10;99.90;;;;;;5048243;28;20503;-73
2023/06/17 12:48:30;;;;;;;24.00;6.40;;;26.90;99.90;;;;;;5052815;28;20415;-73
2023/06/17 12:50:57;;;;;;;28.45;6.07;;;27.00;99.90;;;;;;5055338;28;20782;-74
2023/06/17 12:53:24;;;;;;;26.13;5.70;;;27.00;99.90;;;;;;5051440;28;20405;-73